createdAt,value
2024-04-23T00:00:13.802Z,77.27
2024-04-23T00:03:32.490Z,77.45
2024-04-23T00:06:50.091Z,77.15
2024-04-23T00:10:08.243Z,77.83
2024-04-23T00:13:25.754Z,77.60
2024-04-23T00:16:43.306Z,78.11
2024-04-23T00:20:00.934Z,78.08
2024-04-23T00:23:19.080Z,78.42
2024-04-23T00:26:36.536Z,78.57
2024-04-23T00:29:53.976Z,78.73
2024-04-23T00:33:12.771Z,78.94
2024-04-23T00:36:30.476Z,79.84
2024-04-23T00:39:47.915Z,79.91
2024-04-23T00:43:05.465Z,79.33
2024-04-23T00:46:23.439Z,80.37
2024-04-23T00:49:41.334Z,80.05
2024-04-23T00:52:59.416Z,79.55
2024-04-23T00:56:19.308Z,79.83
2024-04-23T00:59:36.953Z,79.44
2024-04-23T01:02:54.452Z,79.11
2024-04-23T01:06:12.534Z,79.21
2024-04-23T01:09:30.517Z,78.76
2024-04-23T01:12:47.903Z,78.69
2024-04-23T01:16:05.840Z,77.76
2024-04-23T01:19:29.408Z,78.44
2024-04-23T01:22:53.472Z,77.94
2024-04-23T01:26:14.771Z,77.75
2024-04-23T01:29:33.054Z,77.47
2024-04-23T01:32:52.207Z,77.60
2024-04-23T01:36:10.380Z,77.90
2024-04-23T01:39:28.077Z,77.18
2024-04-23T01:42:46.386Z,77.43
2024-04-23T01:46:04.552Z,77.60
2024-04-23T01:49:22.167Z,77.49
2024-04-23T01:52:40.111Z,77.75
2024-04-23T01:55:57.875Z,77.48
2024-04-23T01:59:15.701Z,77.16
2024-04-23T02:02:33.746Z,77.25
2024-04-23T02:05:51.503Z,76.96
2024-04-23T02:09:09.341Z,77.40
2024-04-23T02:12:29.493Z,77.40
2024-04-23T02:15:46.969Z,77.59
2024-04-23T02:19:04.136Z,77.76
2024-04-23T02:22:21.999Z,77.38
2024-04-23T02:25:39.962Z,77.82
2024-04-23T02:28:57.283Z,77.55
2024-04-23T02:32:15.306Z,77.84
2024-04-23T02:35:32.935Z,77.98
2024-04-23T02:38:50.462Z,78.32
2024-04-23T02:42:08.768Z,77.78
2024-04-23T02:45:29.189Z,78.49
2024-04-23T02:48:45.175Z,78.37
2024-04-23T02:52:05.563Z,78.61
2024-04-23T02:55:23.129Z,78.04
2024-04-23T02:58:40.623Z,79.00
2024-04-23T03:02:03.472Z,78.54
2024-04-23T03:05:21.081Z,78.46
2024-04-23T03:08:38.602Z,78.92
2024-04-23T03:12:02.831Z,78.63
2024-04-23T03:15:20.487Z,78.99
2024-04-23T03:18:38.016Z,79.11
2024-04-23T03:22:03.490Z,78.40
2024-04-23T03:25:20.834Z,77.95
2024-04-23T03:28:38.375Z,77.63
2024-04-23T03:31:58.048Z,77.67
2024-04-23T03:35:16.246Z,77.58
2024-04-23T03:38:33.721Z,77.51
2024-04-23T03:42:00.510Z,77.55
2024-04-23T03:45:18.099Z,77.25
2024-04-23T03:48:35.661Z,76.94
2024-04-23T03:51:53.230Z,77.43
2024-04-23T03:55:10.948Z,76.73
2024-04-23T03:58:28.512Z,77.29
2024-04-23T04:01:46.183Z,77.45
2024-04-23T04:05:22.554Z,77.47
2024-04-23T04:08:40.677Z,77.45
2024-04-23T04:11:58.334Z,78.44
2024-04-23T04:15:16.527Z,78.20
2024-04-23T04:18:34.287Z,77.99
2024-04-23T04:21:51.884Z,78.25
2024-04-23T04:25:09.296Z,78.49
2024-04-23T04:28:27.014Z,78.35
2024-04-23T04:31:44.605Z,78.33
2024-04-23T04:35:02.230Z,78.50
2024-04-23T04:38:19.747Z,78.27
2024-04-23T04:41:37.194Z,78.12
2024-04-23T04:44:54.601Z,78.03
2024-04-23T04:48:12.843Z,77.60
2024-04-23T04:51:30.376Z,77.48
2024-04-23T04:54:47.731Z,77.27
2024-04-23T04:58:05.585Z,77.34
2024-04-23T05:01:22.990Z,77.18
2024-04-23T05:04:40.784Z,77.68
2024-04-23T05:07:58.387Z,77.51
2024-04-23T05:11:16.262Z,76.93
2024-04-23T05:14:33.804Z,76.71
2024-04-23T05:17:51.390Z,76.55
2024-04-23T05:21:09.095Z,75.74
2024-04-23T05:24:26.388Z,75.66
2024-04-23T05:27:43.837Z,75.25
2024-04-23T05:31:11.208Z,74.70
2024-04-23T05:34:28.774Z,74.99
2024-04-23T05:37:46.375Z,74.19
2024-04-23T05:41:04.212Z,73.87
2024-04-23T05:44:23.470Z,72.39
2024-04-23T05:47:54.122Z,71.90
2024-04-23T05:52:15.864Z,71.16
2024-04-23T05:55:49.083Z,69.73
2024-04-23T05:59:05.821Z,68.64
2024-04-23T06:02:23.771Z,68.12
2024-04-23T06:05:41.851Z,66.49
2024-04-23T06:08:59.655Z,66.04
2024-04-23T06:12:18.037Z,65.12
2024-04-23T06:15:36.072Z,64.52
2024-04-23T06:18:53.954Z,63.55
2024-04-23T06:22:11.870Z,62.05
2024-04-23T06:25:30.025Z,61.31
2024-04-23T06:28:47.701Z,60.08
2024-04-23T06:32:05.400Z,57.80
2024-04-23T06:35:23.262Z,57.01
2024-04-23T06:38:40.852Z,56.47
2024-04-23T06:41:58.684Z,55.70
2024-04-23T16:47:52.775Z,54.88
2024-04-23T16:51:10.568Z,55.48
2024-04-23T16:54:28.570Z,56.35
2024-04-23T16:57:46.164Z,57.49
2024-04-23T17:01:03.437Z,58.09
2024-04-23T17:04:20.885Z,58.43
2024-04-23T17:07:38.702Z,58.70
2024-04-23T17:10:56.151Z,59.74
2024-04-23T17:14:13.667Z,59.97
2024-04-23T17:17:31.233Z,60.47
2024-04-23T17:20:54.033Z,60.92
2024-04-23T17:24:12.448Z,61.21
2024-04-23T17:27:29.676Z,61.94
2024-04-23T17:30:50.105Z,62.59
2024-04-23T17:34:08.263Z,62.86
2024-04-23T17:37:25.437Z,63.02
2024-04-23T17:40:46.846Z,63.98
2024-04-23T17:44:04.678Z,64.79
2024-04-23T17:47:22.165Z,65.06
2024-04-23T17:50:39.353Z,65.55
2024-04-23T17:54:03.003Z,66.64
2024-04-23T17:57:20.593Z,66.67
2024-04-23T18:00:35.431Z,67.30
2024-04-23T18:03:53.589Z,67.68
2024-04-23T18:07:10.800Z,68.43
2024-04-23T18:10:28.037Z,69.34
2024-04-23T18:13:45.490Z,69.79
2024-04-23T18:17:04.406Z,69.64
2024-04-23T18:20:21.976Z,70.37
2024-04-23T18:23:41.750Z,70.65
2024-04-23T18:26:58.950Z,70.61
2024-04-23T18:30:18.230Z,71.65
2024-04-23T18:33:36.290Z,71.99
2024-04-23T18:36:53.729Z,71.73
2024-04-23T18:40:11.803Z,71.83
2024-04-23T18:43:28.874Z,72.32
2024-04-23T18:46:44.045Z,72.54
2024-04-23T18:50:01.231Z,73.11
2024-04-23T18:53:18.708Z,73.79
2024-04-23T18:56:36.536Z,74.08
2024-04-23T18:59:53.776Z,74.47
2024-04-23T19:03:10.931Z,74.58
2024-04-23T19:06:28.587Z,75.22
2024-04-23T19:09:47.931Z,75.29
2024-04-23T19:13:05.159Z,76.43
2024-04-23T19:16:22.739Z,77.23
2024-04-23T19:19:39.855Z,77.15
2024-04-23T19:22:56.760Z,78.12
2024-04-23T19:26:14.115Z,78.85
2024-04-23T19:29:31.317Z,78.72
2024-04-23T19:32:49.184Z,79.15
2024-04-23T19:36:08.474Z,80.55
2024-04-23T19:39:26.207Z,80.75
2024-04-23T19:42:43.788Z,81.33
2024-04-23T19:46:01.126Z,82.22
2024-04-23T19:49:18.304Z,82.23
2024-04-23T19:52:35.451Z,82.31
2024-04-23T19:55:54.463Z,83.17
2024-04-23T19:59:12.518Z,82.70
2024-04-23T20:02:29.882Z,83.91
2024-04-23T20:05:47.104Z,83.59
2024-04-23T20:09:04.318Z,84.17
2024-04-23T20:12:21.464Z,84.42
2024-04-23T20:15:38.712Z,83.95
2024-04-23T20:18:56.214Z,84.32
2024-04-23T20:22:13.617Z,84.53
2024-04-23T20:25:30.931Z,84.95
2024-04-23T20:28:48.149Z,84.67
2024-04-23T20:32:05.631Z,85.19
2024-04-23T20:35:22.848Z,85.68
2024-04-23T20:38:40.062Z,85.13
2024-04-23T20:41:57.235Z,85.30
2024-04-23T20:45:16.102Z,85.16
2024-04-23T20:48:33.472Z,84.77
2024-04-23T20:51:50.915Z,84.69
2024-04-23T20:55:08.160Z,85.54
2024-04-23T20:58:25.869Z,85.18
2024-04-23T21:01:43.148Z,85.07
2024-04-23T21:05:00.578Z,84.39
2024-04-23T21:08:18.611Z,84.53
2024-04-23T21:11:37.461Z,85.06
2024-04-23T21:14:54.919Z,84.60
2024-04-23T21:18:12.629Z,84.16
2024-04-23T21:21:31.244Z,84.62
2024-04-23T21:24:48.472Z,83.93
2024-04-23T21:28:05.605Z,83.99
2024-04-23T21:31:22.993Z,84.79
2024-04-23T21:34:40.668Z,85.02
2024-04-23T21:37:57.898Z,84.35
2024-04-23T21:41:17.322Z,84.93
2024-04-23T21:44:34.689Z,85.01
2024-04-23T21:47:52.211Z,84.78
2024-04-23T21:51:16.477Z,84.93
2024-04-23T21:54:33.661Z,84.18
2024-04-23T21:57:51.888Z,84.57
2024-04-23T22:01:10.823Z,84.58
2024-04-23T22:04:28.575Z,84.64
2024-04-23T22:07:50.636Z,85.70
2024-04-23T22:11:07.995Z,84.90
2024-04-23T22:14:25.904Z,85.11
2024-04-23T22:17:44.162Z,85.46
2024-04-23T22:21:01.525Z,85.44
2024-04-23T22:24:19.234Z,85.21
2024-04-23T22:27:36.328Z,86.34
2024-04-23T22:30:53.677Z,85.55
2024-04-23T22:34:12.046Z,85.64
2024-04-23T22:37:29.360Z,86.40
2024-04-23T22:40:46.508Z,86.13
2024-04-23T22:44:03.956Z,86.41
2024-04-23T22:47:23.092Z,87.00
2024-04-23T22:50:40.330Z,87.01
2024-04-23T22:53:57.528Z,86.55
2024-04-23T22:57:15.049Z,86.42
2024-04-23T23:00:32.411Z,86.52
2024-04-23T23:03:49.431Z,86.25
2024-04-23T23:07:06.911Z,86.35
2024-04-23T23:10:23.970Z,85.99
2024-04-23T23:13:41.115Z,85.02
2024-04-23T23:16:58.235Z,85.53
2024-04-23T23:20:17.113Z,85.15
2024-04-23T23:23:34.227Z,84.44
2024-04-23T23:26:49.016Z,84.34
2024-04-23T23:30:05.907Z,84.69
2024-04-23T23:33:23.063Z,85.13
2024-04-23T23:36:40.383Z,85.19
2024-04-23T23:39:57.537Z,84.80
2024-04-23T23:43:14.743Z,85.40
2024-04-23T23:46:31.495Z,85.37
2024-04-23T23:49:48.594Z,84.91
2024-04-23T23:53:05.902Z,84.99
2024-04-23T23:56:23.119Z,85.31
2024-04-23T23:59:40.417Z,84.48
